Huntington, IN (46750)

8:22 AM EST on December 25, 2014 (GMT -0500)
Precision Ag Guy | Change Station
CLOSE
Current Station
Personal Weather Station
Location: Huntington, IN
Elevation: 820 ft
Nearby Weather Stations

Elev 820 ft 40.81 °N, 85.49 °W | Updated 30 seconds ago

Overcast
Overcast
34.7 °F
Feels Like 27 °F
N
10.0
Wind Variable Wind from WSW
Gusts 15.0 mph

Today
High -- | Low -- °F
--% Chance of Precip.
Yesterday
High -- | Low -- °F
Precip. -- in
8:04 AM 5:19 PM
Waxing Crescent, 16% visible
Pressure 29.92 in
Visibility 10.0 miles
Clouds Scattered Clouds 1600 ft
Overcast 3400 ft
Windchill 27 °F
Dew Point 32 °F
Humidity 90%
Rainfall 0.00 in
Snow Depth Not available.
UV 0 out of 12
Pollen .10 out of 12
Air Quality Not available.
Flu Activity Not available.
SPECI KFWA 251316Z 26013KT 10SM SCT016 OVC034 02/00 A2992 RMK AO2 T00170000

More Conditions Fewer Conditions

Pressure 29.92 in
Visibility 10.0 miles
Clouds Scattered Clouds 1600 ft
Overcast 3400 ft
Windchill 27 °F
Dew Point 32 °F
Humidity 90%
Rainfall 0.00 in
Snow Depth Not available.
UV 0 out of 12
Pollen .10 out of 12
Air Quality Not available.
Flu Activity Not available.
SPECI KFWA 251316Z 26013KT 10SM SCT016 OVC034 02/00 A2992 RMK AO2 T00170000

More Conditions Fewer Conditions

10-Day Weather Forecast

Almanac

Astronomy

Dec. 25, 2014 Rise Set
Actual Time
Civil Twilight
Nautical Twilight
Astronomical Twilight
Moon
Length of Visible Light
Length of Day
Tomorrow will be .
, % of the Moon is Illuminated

Today's Extremes

State Highs State Lows

Community

WunderPhotos

Upload Photos

1,780,271 photos uploaded!

WunderBlogs® & News

Nearby

Air Quality

  Air Quality AQ Index Pollutant
Not available.

Snow Depth

Station Depth Elevation

Earthquake Activity

City Distance Mag. Time & Date
Minimum magnitude displayed is 2.5.

Coastal Water Temperatures

Place Temperature

Nearby Weather Stations